createdAt,value
2018-12-04T00:01:13.554Z,98196.17
2018-12-04T00:03:44.221Z,98195.94
2018-12-04T00:06:14.397Z,98204.36
2018-12-04T00:08:44.642Z,98202.56
2018-12-04T00:11:15.653Z,98215.97
2018-12-04T00:13:46.020Z,98207.30
2018-12-04T00:16:17.156Z,98208.61
2018-12-04T00:18:47.979Z,98212.03
2018-12-04T00:21:18.200Z,98136.84
2018-12-04T00:23:48.748Z,98201.19
2018-12-04T00:26:20.155Z,98200.13
2018-12-04T00:28:50.470Z,98202.14
2018-12-04T00:31:21.633Z,98197.95
2018-12-04T00:33:52.076Z,98195.11
2018-12-04T00:36:22.081Z,98198.34
2018-12-04T00:38:52.808Z,98097.00
2018-12-04T00:41:23.120Z,98203.05
2018-12-04T00:43:53.473Z,98205.95
2018-12-04T00:46:24.308Z,98213.38
2018-12-04T00:48:54.571Z,98223.86
2018-12-04T00:51:24.425Z,98222.52
2018-12-04T00:53:55.901Z,98225.72
2018-12-04T00:56:27.249Z,98231.22
2018-12-04T00:58:57.778Z,98233.05
2018-12-04T01:01:28.002Z,98231.19
2018-12-04T01:03:58.468Z,98233.82
2018-12-04T01:06:28.669Z,98235.34
2018-12-04T01:09:00.421Z,98242.61
2018-12-04T01:11:30.627Z,98252.84
2018-12-04T01:14:01.855Z,98252.53
2018-12-04T01:16:32.288Z,98261.24
2018-12-04T01:19:02.570Z,98255.44
2018-12-04T01:21:33.409Z,98260.69
2018-12-04T01:24:04.947Z,98264.34
2018-12-04T01:26:35.121Z,98269.88
2018-12-04T01:29:05.549Z,98273.82
2018-12-04T01:31:36.897Z,98283.48
2018-12-04T01:34:07.635Z,98291.53
2018-12-04T01:36:38.283Z,98297.86
2018-12-04T01:39:09.487Z,98300.36
2018-12-04T01:41:39.627Z,98287.58
2018-12-04T01:44:09.872Z,98307.84
2018-12-04T01:46:40.644Z,98309.00
2018-12-04T01:49:12.598Z,98304.68
2018-12-04T01:51:43.420Z,98302.80
2018-12-04T01:54:14.113Z,98295.11
2018-12-04T01:56:44.153Z,98299.23
2018-12-04T01:59:15.241Z,98314.17
2018-12-04T02:01:46.292Z,98316.52
2018-12-04T02:04:16.853Z,98318.72
2018-12-04T02:06:46.881Z,98334.36
2018-12-04T02:09:17.790Z,98318.75
2018-12-04T02:11:48.253Z,98327.53
2018-12-04T02:14:18.421Z,98339.66
2018-12-04T02:16:48.585Z,98326.03
2018-12-04T02:19:19.056Z,98340.81
2018-12-04T02:21:49.944Z,98331.69
2018-12-04T02:24:20.837Z,98342.75
2018-12-04T02:26:50.948Z,98359.63
2018-12-04T02:29:21.206Z,98360.44
2018-12-04T02:31:51.548Z,98350.91
2018-12-04T02:34:22.597Z,98353.30
2018-12-04T02:36:53.184Z,98365.95
2018-12-04T02:39:23.966Z,98376.80
2018-12-04T02:41:55.415Z,98382.56
2018-12-04T02:44:25.544Z,98377.87
2018-12-04T02:46:55.760Z,98381.45
2018-12-04T02:49:25.950Z,98388.65
2018-12-04T02:51:56.802Z,98411.30
2018-12-04T02:54:27.524Z,98410.28
2018-12-04T02:56:58.704Z,98414.09
2018-12-04T02:59:29.269Z,98433.05
2018-12-04T03:01:59.479Z,98431.73
2018-12-04T03:04:30.541Z,98453.10
2018-12-04T03:07:01.733Z,98427.22
2018-12-04T03:09:31.855Z,98441.46
2018-12-04T03:12:02.929Z,98447.05
2018-12-04T03:14:34.459Z,98457.69
2018-12-04T03:17:05.285Z,98490.06
2018-12-04T03:19:35.867Z,98476.42
2018-12-04T03:22:06.869Z,98488.08
2018-12-04T03:24:37.085Z,98496.39
2018-12-04T03:27:07.608Z,98505.94
2018-12-04T03:29:37.895Z,98515.80
2018-12-04T03:32:07.981Z,98521.48
2018-12-04T03:34:39.153Z,98527.32
2018-12-04T03:37:09.392Z,98540.09
2018-12-04T03:39:40.248Z,98533.23
2018-12-04T03:42:11.390Z,98537.47
2018-12-04T03:44:42.238Z,98548.56
2018-12-04T03:47:13.375Z,98549.95
2018-12-04T03:49:43.522Z,98552.73
2018-12-04T03:52:14.075Z,98557.23
2018-12-04T03:54:44.123Z,98569.31
2018-12-04T03:57:14.898Z,98585.41
2018-12-04T03:59:45.529Z,98596.75
2018-12-04T04:02:15.971Z,98634.20
2018-12-04T04:04:46.106Z,98621.62
2018-12-04T04:07:16.797Z,98629.32
2018-12-04T04:09:46.990Z,98634.39
2018-12-04T04:12:21.353Z,98647.88
2018-12-04T04:14:52.447Z,98643.27
2018-12-04T04:17:22.492Z,98664.50
2018-12-04T04:19:53.034Z,98695.23
2018-12-04T04:22:23.362Z,98678.09
2018-12-04T04:24:53.894Z,98696.36
2018-12-04T04:27:24.224Z,98686.42
2018-12-04T04:29:54.918Z,98696.73
2018-12-04T04:32:25.116Z,98692.65
2018-12-04T04:34:55.306Z,98707.97
2018-12-04T04:37:26.354Z,98724.55
2018-12-04T04:39:56.513Z,98729.52
2018-12-04T04:42:26.966Z,98742.02
2018-12-04T04:44:58.209Z,98752.78
2018-12-04T04:47:28.408Z,98763.82
2018-12-04T04:49:59.162Z,98781.60
2018-12-04T04:52:30.464Z,98788.78
2018-12-04T04:55:03.645Z,98799.60
2018-12-04T04:57:33.928Z,98799.19
2018-12-04T05:00:05.382Z,98820.16
2018-12-04T05:02:35.755Z,98824.52
2018-12-04T05:05:06.332Z,98828.95
2018-12-04T05:07:36.700Z,98842.52
2018-12-04T05:10:14.656Z,98848.78
2018-12-04T05:12:44.915Z,98859.33
2018-12-04T05:15:15.346Z,98861.64
2018-12-04T05:17:48.477Z,98869.70
2018-12-04T05:20:18.575Z,98870.44
2018-12-04T05:22:49.139Z,98868.69
2018-12-04T05:25:19.371Z,98876.98
2018-12-04T05:27:49.714Z,98889.76
2018-12-04T05:30:20.100Z,98886.94
2018-12-04T05:32:50.026Z,98893.89
2018-12-04T05:35:20.250Z,98901.67
2018-12-04T05:37:50.611Z,98903.98
2018-12-04T05:40:20.675Z,98902.27
2018-12-04T05:42:50.929Z,98908.95
2018-12-04T05:45:21.627Z,98911.06
2018-12-04T05:47:51.560Z,98910.25
2018-12-04T05:50:21.592Z,98919.91
2018-12-04T05:54:00.849Z,98919.14
2018-12-04T05:56:31.308Z,98924.16
2018-12-04T05:59:01.949Z,98871.37
2018-12-04T06:01:31.829Z,98939.84
2018-12-04T06:04:02.027Z,98952.87
2018-12-04T06:06:32.470Z,98968.78
2018-12-04T06:09:03.713Z,98978.14
2018-12-04T06:11:34.748Z,99000.38
2018-12-04T06:14:05.278Z,99000.53
2018-12-04T06:16:35.487Z,99009.55
2018-12-04T06:19:05.916Z,99025.30
2018-12-04T06:21:36.695Z,99022.36
2018-12-04T06:24:07.322Z,98939.88
2018-12-04T06:26:37.908Z,99035.05
2018-12-04T06:29:08.467Z,99044.91
2018-12-04T06:31:38.778Z,99050.86
2018-12-04T06:34:09.421Z,99055.02
2018-12-04T06:36:39.873Z,99053.81
2018-12-04T06:39:10.371Z,99066.17
2018-12-04T06:41:40.780Z,99074.59
2018-12-04T06:44:11.203Z,99078.97
2018-12-04T06:46:41.085Z,99088.77
2018-12-04T06:49:11.127Z,99094.93
2018-12-04T06:51:41.537Z,99098.65
2018-12-04T06:54:11.309Z,99108.20
2018-12-04T06:56:41.665Z,99113.93
2018-12-04T06:59:12.321Z,99129.11
2018-12-04T07:01:42.968Z,99125.52
2018-12-04T07:04:13.155Z,99128.77
2018-12-04T07:06:45.142Z,99136.23
2018-12-04T07:09:16.230Z,99147.36
2018-12-04T07:11:46.343Z,99150.75
2018-12-04T07:14:17.067Z,99149.22
2018-12-04T07:16:47.049Z,99161.69
2018-12-04T07:19:17.044Z,99169.35
2018-12-04T07:21:47.171Z,99175.38
2018-12-04T07:24:17.357Z,99185.55
2018-12-04T07:26:47.615Z,99187.69
2018-12-04T07:29:18.608Z,99200.45
2018-12-04T07:31:48.787Z,99201.02
2018-12-04T07:34:19.605Z,99209.98
2018-12-04T07:36:51.581Z,99216.07
2018-12-04T07:39:22.784Z,99124.87
2018-12-04T07:41:55.215Z,99243.62
2018-12-04T07:44:25.732Z,99222.44
2018-12-04T07:46:56.788Z,99247.94
2018-12-04T07:49:28.191Z,99253.66
2018-12-04T07:51:59.072Z,99254.08
2018-12-04T07:54:31.230Z,99253.27
2018-12-04T07:57:01.518Z,99261.61
2018-12-04T07:59:32.553Z,99267.75
2018-12-04T08:02:02.981Z,99279.39
2018-12-04T08:04:34.701Z,99286.12
2018-12-04T08:07:04.998Z,99296.76
2018-12-04T08:09:36.645Z,99299.86
2018-12-04T08:12:06.599Z,99308.30
2018-12-04T08:14:36.924Z,99312.80
2018-12-04T08:17:07.967Z,99323.55
2018-12-04T08:19:39.175Z,99324.04
2018-12-04T08:22:09.547Z,99329.74
2018-12-04T08:24:40.131Z,99339.95
2018-12-04T08:27:12.372Z,99337.56
2018-12-04T08:29:42.853Z,99344.35
2018-12-04T08:32:13.201Z,99342.64
2018-12-04T08:34:44.113Z,99356.91
2018-12-04T08:37:15.211Z,99360.80
2018-12-04T08:39:46.160Z,99359.36
2018-12-04T08:42:17.631Z,99373.33
2018-12-04T08:49:07.642Z,99371.27
2018-12-04T08:51:37.667Z,99392.08
2018-12-04T08:54:07.895Z,99396.08
2018-12-04T08:56:39.996Z,99407.23
2018-12-04T08:59:10.164Z,99412.95
2018-12-04T09:01:40.573Z,99422.72
2018-12-04T09:04:11.481Z,99427.30
2018-12-04T09:06:41.509Z,99432.54
2018-12-04T09:09:12.821Z,99434.33
2018-12-04T09:11:42.941Z,99440.31
2018-12-04T09:14:13.736Z,99449.28
2018-12-04T09:16:43.840Z,99452.36
2018-12-04T09:19:14.366Z,99456.36
2018-12-04T09:21:44.670Z,99465.84
2018-12-04T09:24:15.157Z,99477.63
2018-12-04T09:26:45.331Z,99486.20
2018-12-04T09:29:15.994Z,99496.10
2018-12-04T09:31:46.379Z,99494.43
2018-12-04T09:34:17.070Z,99495.98
2018-12-04T09:36:47.208Z,99502.36
2018-12-04T09:39:17.390Z,99491.95
2018-12-04T09:41:47.749Z,99511.47
2018-12-04T09:44:20.560Z,99518.74
2018-12-04T09:46:51.636Z,99517.24
2018-12-04T09:49:21.528Z,99519.94
2018-12-04T09:51:51.950Z,99527.20
2018-12-04T09:54:21.770Z,99535.74
2018-12-04T09:56:53.223Z,99542.39
2018-12-04T09:59:26.174Z,99549.00
2018-12-04T10:01:56.540Z,99543.70
2018-12-04T10:04:29.691Z,99531.31
2018-12-04T10:06:59.781Z,99535.55
2018-12-04T10:09:30.420Z,99539.95
2018-12-04T10:12:02.131Z,99543.98
2018-12-04T10:14:32.179Z,99546.54
2018-12-04T10:17:02.387Z,99550.13
2018-12-04T10:19:32.668Z,99555.84
2018-12-04T10:22:06.488Z,99554.72
2018-12-04T10:24:38.262Z,99557.14
2018-12-04T10:27:08.384Z,99569.25
2018-12-04T10:29:38.759Z,99562.81
2018-12-04T10:32:09.404Z,99567.52
2018-12-04T10:34:39.412Z,99572.48
2018-12-04T10:37:09.620Z,99580.38
2018-12-04T10:39:40.349Z,99580.70
2018-12-04T10:42:10.567Z,99583.13
2018-12-04T10:44:41.126Z,99583.13
2018-12-04T10:47:11.806Z,99581.52
2018-12-04T10:49:41.830Z,99585.86
2018-12-04T10:52:11.667Z,99582.05
2018-12-04T10:54:41.791Z,99598.64
2018-12-04T10:57:12.038Z,99607.38
2018-12-04T10:59:42.195Z,99608.80
2018-12-04T11:02:17.246Z,99610.98
2018-12-04T11:04:47.109Z,99614.47
2018-12-04T11:07:17.194Z,99622.02
2018-12-04T11:09:47.589Z,99625.14
2018-12-04T11:12:18.410Z,99622.50
2018-12-04T11:14:49.772Z,99625.75
2018-12-04T11:17:19.656Z,99624.76
2018-12-04T11:19:49.681Z,99630.82
2018-12-04T11:22:20.320Z,99543.17
2018-12-04T11:24:50.214Z,99639.36
2018-12-04T11:27:20.432Z,99639.36
2018-12-04T11:29:50.879Z,99643.22
2018-12-04T11:32:21.046Z,99653.20
2018-12-04T11:34:51.227Z,99641.34
2018-12-04T11:37:21.701Z,99659.64
2018-12-04T11:39:52.633Z,99661.23
2018-12-04T11:42:22.633Z,99655.27
2018-12-04T11:44:52.884Z,99669.45
2018-12-04T11:47:23.240Z,99676.30
2018-12-04T11:49:53.073Z,99679.50
2018-12-04T11:52:23.251Z,99688.96
2018-12-04T11:54:54.354Z,99692.28
2018-12-04T11:57:24.349Z,99694.84
2018-12-04T11:59:54.971Z,99689.31
2018-12-04T12:02:24.989Z,99694.15
2018-12-04T12:04:55.520Z,99691.16
2018-12-04T12:07:25.895Z,99700.54
2018-12-04T12:09:55.885Z,99698.72
2018-12-04T12:12:25.728Z,99701.95
2018-12-04T12:14:55.934Z,99713.74
2018-12-04T12:22:55.588Z,99720.91
2018-12-04T12:25:26.063Z,99717.65
2018-12-04T12:27:56.270Z,99730.05
2018-12-04T12:30:27.008Z,99739.81
2018-12-04T12:32:58.283Z,99734.08
2018-12-04T12:35:29.945Z,99739.72
2018-12-04T12:38:00.904Z,99739.33
2018-12-04T12:40:31.936Z,99739.64
2018-12-04T12:43:01.895Z,99768.66
2018-12-04T12:45:31.918Z,99750.42
2018-12-04T12:48:02.265Z,99751.20
2018-12-04T12:50:32.451Z,99650.68
2018-12-04T12:53:02.832Z,99773.63
2018-12-04T12:55:33.800Z,99762.30
2018-12-04T12:58:04.814Z,99771.47
2018-12-04T13:00:36.218Z,99779.25
2018-12-04T13:03:06.273Z,99782.07
2018-12-04T13:05:41.492Z,99783.61
2018-12-04T13:08:20.072Z,99781.98
2018-12-04T13:10:53.455Z,99785.98
2018-12-04T13:13:29.116Z,99784.77
2018-12-04T13:16:01.566Z,99783.13
2018-12-04T13:18:31.930Z,99803.59
2018-12-04T13:21:02.188Z,99805.48
2018-12-04T13:23:32.197Z,99808.89
2018-12-04T13:26:03.455Z,99812.19
2018-12-04T13:28:33.493Z,99814.95
2018-12-04T13:31:04.201Z,99813.93
2018-12-04T13:33:34.082Z,99809.81
2018-12-04T13:36:08.790Z,99817.27
2018-12-04T13:38:39.919Z,99817.98
2018-12-04T13:41:13.192Z,99824.86
2018-12-04T13:43:43.196Z,99828.33
2018-12-04T13:46:13.874Z,99829.45
2018-12-04T13:48:43.767Z,99831.97
2018-12-04T13:51:14.395Z,99826.30
2018-12-04T13:53:44.713Z,99836.48
2018-12-04T13:56:14.836Z,99855.84
2018-12-04T13:58:48.970Z,99876.30
2018-12-04T14:01:19.289Z,99866.34
2018-12-04T14:03:49.281Z,99874.26
2018-12-04T14:06:19.433Z,99873.63
2018-12-04T14:08:49.410Z,99884.13
2018-12-04T14:11:19.938Z,99899.78
2018-12-04T14:13:50.094Z,99899.74
2018-12-04T14:16:20.489Z,99907.94
2018-12-04T14:18:51.345Z,99909.20
2018-12-04T14:21:22.280Z,99914.67
2018-12-04T14:23:52.776Z,99907.56
2018-12-04T14:26:22.653Z,99920.94
2018-12-04T14:28:52.760Z,99919.00
2018-12-04T14:31:22.894Z,99926.40
2018-12-04T14:33:53.361Z,99930.88
2018-12-04T14:36:23.807Z,99940.82
2018-12-04T14:38:54.811Z,99929.74
2018-12-04T14:41:25.669Z,99935.80
2018-12-04T14:43:55.681Z,99940.30
2018-12-04T14:46:26.583Z,99947.69
2018-12-04T14:48:56.551Z,99946.88
2018-12-04T14:51:26.567Z,99951.14
2018-12-04T14:53:56.511Z,99954.16
2018-12-04T14:56:27.788Z,99953.58
2018-12-04T14:58:58.045Z,99961.30
2018-12-04T15:01:29.682Z,99960.72
2018-12-04T15:04:01.417Z,99971.33
2018-12-04T15:06:33.741Z,99978.02
2018-12-04T15:09:06.079Z,99980.27
2018-12-04T15:11:36.573Z,99989.45
2018-12-04T15:14:06.783Z,99992.39
2018-12-04T15:16:37.314Z,99997.67
2018-12-04T15:19:07.247Z,100004.08
2018-12-04T15:21:37.225Z,100008.83
2018-12-04T15:24:11.376Z,100022.03
2018-12-04T15:26:42.052Z,100037.69
2018-12-04T15:29:14.419Z,100036.11
2018-12-04T15:31:44.620Z,100047.66
2018-12-04T15:34:14.746Z,100046.84
2018-12-04T15:36:45.228Z,100050.87
2018-12-04T15:39:17.475Z,100054.88
2018-12-04T15:41:48.439Z,100051.78
2018-12-04T15:44:19.254Z,100062.38
2018-12-04T15:46:52.838Z,100060.78
2018-12-04T15:49:23.381Z,100070.20
2018-12-04T15:51:54.854Z,100070.41
2018-12-04T15:54:26.326Z,99965.72
2018-12-04T15:56:57.979Z,100067.89
2018-12-04T15:59:29.576Z,100087.63
2018-12-04T16:02:08.902Z,100076.39
2018-12-04T16:04:45.454Z,100063.97
2018-12-04T16:07:27.927Z,100086.11
2018-12-04T16:12:41.451Z,100100.63
2018-12-04T16:15:11.570Z,100106.66
2018-12-04T16:17:43.684Z,100117.89
2018-12-04T16:20:15.845Z,100125.73
2018-12-04T16:22:46.411Z,100123.62
2018-12-04T16:25:18.205Z,100126.58
2018-12-04T16:27:48.950Z,100129.67
2018-12-04T16:33:02.929Z,100138.34
2018-12-04T16:35:33.061Z,100147.12
2018-12-04T16:38:03.126Z,100046.25
2018-12-04T16:40:33.785Z,100154.27
2018-12-04T16:43:04.590Z,100145.80
2018-12-04T16:45:34.959Z,100147.78
2018-12-04T16:48:05.123Z,100156.09
2018-12-04T16:50:35.541Z,100159.02
2018-12-04T16:53:05.992Z,100163.91
2018-12-04T16:55:36.558Z,100168.63
2018-12-04T16:58:06.988Z,100177.28
2018-12-04T17:00:38.465Z,100187.70
2018-12-04T17:03:10.232Z,100183.29
2018-12-04T17:05:40.231Z,100186.38
2018-12-04T17:08:10.798Z,100189.33
2018-12-04T17:10:41.007Z,100192.25
2018-12-04T17:13:11.201Z,100198.77
2018-12-04T17:15:41.311Z,100194.89
2018-12-04T17:18:13.629Z,100205.12
2018-12-04T17:20:44.863Z,100203.36
2018-12-04T17:23:14.910Z,100198.79
2018-12-04T17:25:45.859Z,100205.31
2018-12-04T17:28:18.724Z,100210.02
2018-12-04T17:30:50.628Z,100210.69
2018-12-04T17:33:22.655Z,100218.98
2018-12-04T17:35:53.221Z,100228.38
2018-12-04T17:38:23.233Z,100229.99
2018-12-04T17:40:53.305Z,100234.56
2018-12-04T17:43:24.078Z,100247.73
2018-12-04T17:45:54.058Z,100240.72
2018-12-04T17:48:25.401Z,100239.11
2018-12-04T17:50:55.947Z,100239.75
2018-12-04T17:53:27.437Z,100243.80
2018-12-04T17:55:58.721Z,100250.46
2018-12-04T17:58:30.303Z,100150.92
2018-12-04T18:01:00.873Z,100254.55
2018-12-04T18:03:31.268Z,100257.48
2018-12-04T18:06:04.405Z,100252.77
2018-12-04T18:08:37.653Z,100260.23
2018-12-04T18:11:19.795Z,100252.41
2018-12-04T18:14:04.227Z,100261.20
2018-12-04T18:16:35.712Z,100275.81
2018-12-04T18:19:09.804Z,100271.25
2018-12-04T18:21:42.182Z,100277.42
2018-12-04T18:24:16.747Z,100277.27
2018-12-04T18:26:48.140Z,100280.98
2018-12-04T18:29:19.970Z,100095.26
2018-12-04T18:31:49.951Z,100287.97
2018-12-04T18:34:20.084Z,100299.81
2018-12-04T18:36:50.464Z,100302.71
2018-12-04T18:39:20.440Z,100308.23
2018-12-04T18:41:50.636Z,100308.09
2018-12-04T18:44:21.384Z,100313.29
2018-12-04T18:46:51.636Z,100315.71
2018-12-04T18:49:21.729Z,100320.61
2018-12-04T18:51:52.688Z,100323.69
2018-12-04T18:54:22.864Z,100326.44
2018-12-04T18:56:53.665Z,100318.78
2018-12-04T18:59:24.085Z,100321.19
2018-12-04T19:01:54.057Z,100316.33
2018-12-04T19:04:24.200Z,100315.50
2018-12-04T19:06:54.682Z,100318.73
2018-12-04T19:09:25.865Z,100317.91
2018-12-04T19:11:56.262Z,100324.55
2018-12-04T19:14:26.173Z,100326.52
2018-12-04T19:16:56.515Z,100332.19
2018-12-04T19:19:27.254Z,100332.48
2018-12-04T19:21:57.291Z,100335.09
2018-12-04T19:24:27.262Z,100339.31
2018-12-04T19:26:58.350Z,100337.34
2018-12-04T19:29:29.205Z,100337.67
2018-12-04T19:31:59.698Z,100340.90
2018-12-04T19:34:31.356Z,100339.27
2018-12-04T19:37:03.360Z,100340.06
2018-12-04T19:39:35.058Z,100346.70
2018-12-04T19:42:05.746Z,100349.98
2018-12-04T19:44:36.445Z,100356.81
2018-12-04T19:47:08.550Z,100358.06
2018-12-04T19:49:40.184Z,100356.61
2018-12-04T19:52:10.521Z,100362.44
2018-12-04T19:54:42.815Z,100361.66
2018-12-04T19:57:12.996Z,100367.48
2018-12-04T19:59:43.308Z,100364.55
2018-12-04T20:02:13.942Z,100365.17
2018-12-04T20:04:43.917Z,100372.13
2018-12-04T20:07:14.915Z,100374.72
2018-12-04T20:09:45.640Z,100380.06
2018-12-04T20:12:18.987Z,100392.21
2018-12-04T20:14:50.326Z,100333.05
2018-12-04T20:17:20.371Z,100404.50
2018-12-04T20:19:51.276Z,100410.50
2018-12-04T20:22:21.987Z,100411.80
2018-12-04T20:24:53.266Z,100411.31
2018-12-04T20:27:23.679Z,100416.51
2018-12-04T20:29:54.091Z,100416.28
2018-12-04T20:32:25.585Z,100419.50
2018-12-04T20:34:55.553Z,100426.34
2018-12-04T20:37:25.549Z,100426.31
2018-12-04T20:39:56.879Z,100438.59
2018-12-04T20:42:26.807Z,100451.37
2018-12-04T20:44:57.819Z,100450.41
2018-12-04T20:47:27.701Z,100457.72
2018-12-04T20:49:58.004Z,100452.53
2018-12-04T20:52:27.972Z,100456.91
2018-12-04T20:54:58.567Z,100460.31
2018-12-04T20:57:28.498Z,100464.15
2018-12-04T20:59:58.994Z,100461.19
2018-12-04T21:02:29.042Z,100458.76
2018-12-04T21:05:00.702Z,100461.49
2018-12-04T21:07:30.750Z,100467.13
2018-12-04T21:10:01.027Z,100471.84
2018-12-04T21:12:32.089Z,100466.93
2018-12-04T21:15:03.121Z,100474.37
2018-12-04T21:17:33.328Z,100469.52
2018-12-04T21:20:04.370Z,100477.31
2018-12-04T21:22:35.980Z,100475.30
2018-12-04T21:25:08.162Z,100476.22
2018-12-04T21:27:43.055Z,100482.67
2018-12-04T21:30:18.252Z,100485.75
2018-12-04T21:32:53.159Z,100485.68
2018-12-04T21:35:28.094Z,100485.55
2018-12-04T21:38:04.097Z,100486.70
2018-12-04T21:40:39.480Z,100488.17
2018-12-04T21:43:14.487Z,100487.86
2018-12-04T21:45:50.383Z,100492.23
2018-12-04T21:48:24.201Z,100495.58
2018-12-04T21:50:55.303Z,100498.81
2018-12-04T21:53:26.091Z,100494.63
2018-12-04T21:55:57.214Z,100499.47
2018-12-04T21:58:29.967Z,100436.70
2018-12-04T22:01:00.391Z,100517.25
2018-12-04T22:03:31.079Z,100525.95
2018-12-04T22:06:01.916Z,100523.62
2018-12-04T22:08:32.419Z,100521.58
2018-12-04T22:11:03.615Z,100530.45
2018-12-04T22:13:34.194Z,100533.95
2018-12-04T22:16:04.419Z,100536.21
2018-12-04T22:18:35.003Z,100536.51
2018-12-04T22:21:05.425Z,100538.41
2018-12-04T22:23:36.148Z,100542.04
2018-12-04T22:26:10.192Z,100537.67
2018-12-04T22:28:40.360Z,100535.21
2018-12-04T22:31:10.565Z,100534.73
2018-12-04T22:33:41.478Z,100533.44
2018-12-04T22:36:12.453Z,100535.55
2018-12-04T22:38:42.742Z,100536.17
2018-12-04T22:41:14.168Z,100530.30
2018-12-04T22:43:44.531Z,100535.09
2018-12-04T22:46:15.163Z,100539.76
2018-12-04T22:48:45.588Z,100537.64
2018-12-04T22:51:16.989Z,100547.67
2018-12-04T22:53:46.864Z,100530.47
2018-12-04T22:56:17.105Z,100529.81
2018-12-04T22:58:47.479Z,100525.85
2018-12-04T23:01:30.418Z,100534.83
2018-12-04T23:04:00.708Z,100529.44
2018-12-04T23:06:30.641Z,100521.31
2018-12-04T23:09:00.588Z,100525.97
2018-12-04T23:11:31.805Z,100538.94
2018-12-04T23:14:01.827Z,100541.79
2018-12-04T23:16:32.208Z,100545.58
2018-12-04T23:19:02.912Z,100540.31
2018-12-04T23:21:33.510Z,100552.13
2018-12-04T23:24:03.892Z,100550.36
2018-12-04T23:26:34.456Z,100552.73
2018-12-04T23:29:06.027Z,100557.39
2018-12-04T23:31:36.523Z,100557.23
2018-12-04T23:34:07.367Z,100558.60
2018-12-04T23:36:37.434Z,100561.75
2018-12-04T23:39:09.527Z,100556.01
2018-12-04T23:41:39.938Z,100555.83
2018-12-04T23:44:10.100Z,100552.02
2018-12-04T23:46:40.628Z,100548.73
2018-12-04T23:49:12.300Z,100542.13
2018-12-04T23:51:42.564Z,100543.73
2018-12-04T23:54:13.314Z,100544.72
2018-12-04T23:56:43.674Z,100541.65
2018-12-04T23:59:13.707Z,100550.56
